sensor_id;sensor_type;location;lat;lon;timestamp;P1;durP1;ratioP1;P2;durP2;ratioP2
70946;SDS011;58605;48.700;8.760;2022-11-15T00:00:19;8.33;;;6.53;;
70946;SDS011;58605;48.700;8.760;2022-11-15T00:02:45;9.53;;;6.80;;
70946;SDS011;58605;48.700;8.760;2022-11-15T00:05:11;7.00;;;5.97;;
70946;SDS011;58605;48.700;8.760;2022-11-15T00:07:37;10.30;;;7.10;;
70946;SDS011;58605;48.700;8.760;2022-11-15T00:10:04;7.70;;;5.93;;
70946;SDS011;58605;48.700;8.760;2022-11-15T00:12:30;6.23;;;5.47;;
70946;SDS011;58605;48.700;8.760;2022-11-15T00:14:58;8.50;;;5.80;;
70946;SDS011;58605;48.700;8.760;2022-11-15T00:17:24;6.60;;;5.87;;
70946;SDS011;58605;48.700;8.760;2022-11-15T00:19:50;7.90;;;5.73;;
70946;SDS011;58605;48.700;8.760;2022-11-15T00:22:16;6.00;;;5.40;;
70946;SDS011;58605;48.700;8.760;2022-11-15T00:24:42;10.37;;;6.10;;
70946;SDS011;58605;48.700;8.760;2022-11-15T00:27:08;5.93;;;5.33;;
70946;SDS011;58605;48.700;8.760;2022-11-15T00:29:34;7.87;;;5.80;;
70946;SDS011;58605;48.700;8.760;2022-11-15T00:32:04;7.27;;;5.97;;
70946;SDS011;58605;48.700;8.760;2022-11-15T00:34:30;6.70;;;6.10;;
70946;SDS011;58605;48.700;8.760;2022-11-15T00:36:56;7.53;;;5.93;;
70946;SDS011;58605;48.700;8.760;2022-11-15T00:39:22;8.97;;;6.13;;
70946;SDS011;58605;48.700;8.760;2022-11-15T00:41:48;8.50;;;6.50;;
70946;SDS011;58605;48.700;8.760;2022-11-15T00:44:14;7.97;;;5.50;;
70946;SDS011;58605;48.700;8.760;2022-11-15T00:46:40;6.60;;;5.90;;
70946;SDS011;58605;48.700;8.760;2022-11-15T00:49:07;7.00;;;5.60;;
70946;SDS011;58605;48.700;8.760;2022-11-15T00:51:33;6.90;;;5.57;;
70946;SDS011;58605;48.700;8.760;2022-11-15T00:53:59;6.13;;;5.53;;
70946;SDS011;58605;48.700;8.760;2022-11-15T00:56:25;6.97;;;5.97;;
70946;SDS011;58605;48.700;8.760;2022-11-15T00:58:52;7.37;;;6.17;;
70946;SDS011;58605;48.700;8.760;2022-11-15T01:01:18;8.50;;;6.00;;
70946;SDS011;58605;48.700;8.760;2022-11-15T01:03:44;7.00;;;6.13;;
70946;SDS011;58605;48.700;8.760;2022-11-15T01:06:11;8.23;;;7.40;;
70946;SDS011;58605;48.700;8.760;2022-11-15T01:08:37;7.10;;;6.30;;
70946;SDS011;58605;48.700;8.760;2022-11-15T01:11:04;10.23;;;6.73;;
70946;SDS011;58605;48.700;8.760;2022-11-15T01:13:32;17.33;;;7.53;;
70946;SDS011;58605;48.700;8.760;2022-11-15T01:15:59;11.30;;;7.17;;
70946;SDS011;58605;48.700;8.760;2022-11-15T01:18:30;7.87;;;6.90;;
70946;SDS011;58605;48.700;8.760;2022-11-15T01:20:56;7.93;;;7.07;;
70946;SDS011;58605;48.700;8.760;2022-11-15T01:23:23;9.57;;;7.10;;
70946;SDS011;58605;48.700;8.760;2022-11-15T01:25:49;9.17;;;7.70;;
70946;SDS011;58605;48.700;8.760;2022-11-15T01:28:15;9.77;;;7.43;;
70946;SDS011;58605;48.700;8.760;2022-11-15T01:30:41;7.73;;;6.70;;
70946;SDS011;58605;48.700;8.760;2022-11-15T01:33:07;9.03;;;7.30;;
70946;SDS011;58605;48.700;8.760;2022-11-15T01:35:37;7.97;;;7.17;;
70946;SDS011;58605;48.700;8.760;2022-11-15T01:38:04;8.53;;;7.17;;
70946;SDS011;58605;48.700;8.760;2022-11-15T01:40:31;11.13;;;8.70;;
70946;SDS011;58605;48.700;8.760;2022-11-15T01:42:57;8.80;;;7.53;;
70946;SDS011;58605;48.700;8.760;2022-11-15T01:45:23;7.90;;;7.10;;
70946;SDS011;58605;48.700;8.760;2022-11-15T01:47:50;10.43;;;7.50;;
70946;SDS011;58605;48.700;8.760;2022-11-15T01:50:19;10.53;;;7.57;;
70946;SDS011;58605;48.700;8.760;2022-11-15T01:52:49;10.60;;;7.80;;
70946;SDS011;58605;48.700;8.760;2022-11-15T01:55:16;8.53;;;7.03;;
70946;SDS011;58605;48.700;8.760;2022-11-15T01:57:47;8.20;;;7.17;;
70946;SDS011;58605;48.700;8.760;2022-11-15T02:00:15;10.03;;;7.30;;
70946;SDS011;58605;48.700;8.760;2022-11-15T02:02:42;8.87;;;7.20;;
70946;SDS011;58605;48.700;8.760;2022-11-15T02:05:08;9.40;;;7.17;;
70946;SDS011;58605;48.700;8.760;2022-11-15T02:07:35;10.87;;;7.20;;
70946;SDS011;58605;48.700;8.760;2022-11-15T02:10:02;10.23;;;7.27;;
70946;SDS011;58605;48.700;8.760;2022-11-15T02:12:32;8.30;;;7.10;;
70946;SDS011;58605;48.700;8.760;2022-11-15T02:15:06;9.07;;;7.40;;
70946;SDS011;58605;48.700;8.760;2022-11-15T02:17:39;10.07;;;7.33;;
70946;SDS011;58605;48.700;8.760;2022-11-15T02:20:24;10.30;;;8.10;;
70946;SDS011;58605;48.700;8.760;2022-11-15T02:23:26;7.73;;;6.90;;
70946;SDS011;58605;48.700;8.760;2022-11-15T02:26:18;8.03;;;6.90;;
70946;SDS011;58605;48.700;8.760;2022-11-15T02:29:11;9.20;;;6.53;;
70946;SDS011;58605;48.700;8.760;2022-11-15T02:31:47;11.53;;;6.97;;
70946;SDS011;58605;48.700;8.760;2022-11-15T02:34:17;9.40;;;7.67;;
70946;SDS011;58605;48.700;8.760;2022-11-15T02:36:54;8.07;;;6.90;;
70946;SDS011;58605;48.700;8.760;2022-11-15T02:39:28;9.13;;;7.00;;
70946;SDS011;58605;48.700;8.760;2022-11-15T02:42:01;7.93;;;6.90;;
70946;SDS011;58605;48.700;8.760;2022-11-15T02:44:50;8.47;;;7.63;;
70946;SDS011;58605;48.700;8.760;2022-11-15T02:47:19;10.07;;;7.73;;
70946;SDS011;58605;48.700;8.760;2022-11-15T02:49:47;9.80;;;8.63;;
70946;SDS011;58605;48.700;8.760;2022-11-15T02:52:15;10.43;;;7.93;;
70946;SDS011;58605;48.700;8.760;2022-11-15T02:54:42;8.83;;;7.30;;
70946;SDS011;58605;48.700;8.760;2022-11-15T02:57:10;8.23;;;7.53;;
70946;SDS011;58605;48.700;8.760;2022-11-15T03:00:03;9.80;;;6.87;;
70946;SDS011;58605;48.700;8.760;2022-11-15T03:02:36;8.17;;;7.10;;
70946;SDS011;58605;48.700;8.760;2022-11-15T03:05:16;8.47;;;7.23;;
70946;SDS011;58605;48.700;8.760;2022-11-15T03:07:51;7.63;;;6.80;;
70946;SDS011;58605;48.700;8.760;2022-11-15T03:10:22;8.43;;;7.00;;
70946;SDS011;58605;48.700;8.760;2022-11-15T03:12:56;8.30;;;7.50;;
70946;SDS011;58605;48.700;8.760;2022-11-15T03:15:26;7.50;;;6.70;;
70946;SDS011;58605;48.700;8.760;2022-11-15T03:17:57;9.80;;;7.70;;
70946;SDS011;58605;48.700;8.760;2022-11-15T03:20:25;7.93;;;7.00;;
70946;SDS011;58605;48.700;8.760;2022-11-15T03:22:53;10.87;;;7.77;;
70946;SDS011;58605;48.700;8.760;2022-11-15T03:25:23;11.43;;;8.60;;
70946;SDS011;58605;48.700;8.760;2022-11-15T03:27:51;7.50;;;6.80;;
70946;SDS011;58605;48.700;8.760;2022-11-15T03:30:20;9.73;;;7.67;;
70946;SDS011;58605;48.700;8.760;2022-11-15T03:32:47;9.07;;;7.53;;
70946;SDS011;58605;48.700;8.760;2022-11-15T03:35:17;9.00;;;7.83;;
70946;SDS011;58605;48.700;8.760;2022-11-15T03:37:50;8.50;;;7.40;;
70946;SDS011;58605;48.700;8.760;2022-11-15T03:40:20;9.17;;;7.93;;
70946;SDS011;58605;48.700;8.760;2022-11-15T03:42:52;8.83;;;7.50;;
70946;SDS011;58605;48.700;8.760;2022-11-15T03:45:26;8.17;;;7.00;;
70946;SDS011;58605;48.700;8.760;2022-11-15T03:47:58;8.70;;;6.80;;
70946;SDS011;58605;48.700;8.760;2022-11-15T03:50:28;42.00;;;8.53;;
70946;SDS011;58605;48.700;8.760;2022-11-15T03:52:54;33.17;;;8.30;;
70946;SDS011;58605;48.700;8.760;2022-11-15T03:55:21;10.27;;;7.33;;
70946;SDS011;58605;48.700;8.760;2022-11-15T03:57:49;9.03;;;7.43;;
70946;SDS011;58605;48.700;8.760;2022-11-15T04:00:17;7.53;;;6.73;;
70946;SDS011;58605;48.700;8.760;2022-11-15T04:02:43;7.80;;;6.97;;
70946;SDS011;58605;48.700;8.760;2022-11-15T04:05:09;8.07;;;7.10;;
70946;SDS011;58605;48.700;8.760;2022-11-15T04:07:36;8.43;;;6.77;;
70946;SDS011;58605;48.700;8.760;2022-11-15T04:10:03;7.60;;;6.90;;
70946;SDS011;58605;48.700;8.760;2022-11-15T04:12:30;16.53;;;7.27;;
70946;SDS011;58605;48.700;8.760;2022-11-15T04:14:57;9.57;;;6.73;;
70946;SDS011;58605;48.700;8.760;2022-11-15T04:17:33;10.07;;;7.50;;
70946;SDS011;58605;48.700;8.760;2022-11-15T04:20:00;10.93;;;7.60;;
70946;SDS011;58605;48.700;8.760;2022-11-15T04:22:46;7.93;;;6.90;;
70946;SDS011;58605;48.700;8.760;2022-11-15T04:25:31;9.37;;;7.47;;
70946;SDS011;58605;48.700;8.760;2022-11-15T04:27:57;8.37;;;7.50;;
70946;SDS011;58605;48.700;8.760;2022-11-15T04:30:22;7.90;;;6.67;;
70946;SDS011;58605;48.700;8.760;2022-11-15T04:32:48;8.00;;;7.20;;
70946;SDS011;58605;48.700;8.760;2022-11-15T04:35:14;7.20;;;6.60;;
70946;SDS011;58605;48.700;8.760;2022-11-15T04:37:40;7.67;;;6.40;;
70946;SDS011;58605;48.700;8.760;2022-11-15T04:40:08;8.43;;;6.30;;
70946;SDS011;58605;48.700;8.760;2022-11-15T04:42:34;7.70;;;6.07;;
70946;SDS011;58605;48.700;8.760;2022-11-15T04:45:00;9.83;;;6.60;;
70946;SDS011;58605;48.700;8.760;2022-11-15T04:47:26;7.43;;;6.63;;
70946;SDS011;58605;48.700;8.760;2022-11-15T04:49:53;7.73;;;6.60;;
70946;SDS011;58605;48.700;8.760;2022-11-15T04:52:19;8.10;;;7.23;;
70946;SDS011;58605;48.700;8.760;2022-11-15T04:54:44;8.50;;;7.10;;
70946;SDS011;58605;48.700;8.760;2022-11-15T04:57:12;8.47;;;7.33;;
70946;SDS011;58605;48.700;8.760;2022-11-15T04:59:38;10.17;;;8.77;;
70946;SDS011;58605;48.700;8.760;2022-11-15T05:02:04;9.53;;;8.20;;
70946;SDS011;58605;48.700;8.760;2022-11-15T05:04:30;8.33;;;7.50;;
70946;SDS011;58605;48.700;8.760;2022-11-15T05:06:56;67.07;;;9.90;;
70946;SDS011;58605;48.700;8.760;2022-11-15T05:09:22;167.70;;;14.03;;
70946;SDS011;58605;48.700;8.760;2022-11-15T05:11:48;176.00;;;17.27;;
70946;SDS011;58605;48.700;8.760;2022-11-15T05:14:15;161.17;;;13.50;;
70946;SDS011;58605;48.700;8.760;2022-11-15T05:16:42;72.60;;;10.03;;
70946;SDS011;58605;48.700;8.760;2022-11-15T05:19:08;40.00;;;7.47;;
70946;SDS011;58605;48.700;8.760;2022-11-15T05:21:34;8.53;;;6.57;;
70946;SDS011;58605;48.700;8.760;2022-11-15T05:24:00;9.70;;;6.63;;
70946;SDS011;58605;48.700;8.760;2022-11-15T05:26:26;8.33;;;7.23;;
70946;SDS011;58605;48.700;8.760;2022-11-15T05:28:53;9.47;;;7.60;;
70946;SDS011;58605;48.700;8.760;2022-11-15T05:31:21;8.17;;;7.07;;
70946;SDS011;58605;48.700;8.760;2022-11-15T05:33:48;11.10;;;7.97;;
70946;SDS011;58605;48.700;8.760;2022-11-15T05:36:17;9.80;;;7.17;;
70946;SDS011;58605;48.700;8.760;2022-11-15T05:38:48;11.37;;;8.80;;
70946;SDS011;58605;48.700;8.760;2022-11-15T05:41:15;10.30;;;6.83;;
70946;SDS011;58605;48.700;8.760;2022-11-15T05:43:44;7.70;;;6.50;;
70946;SDS011;58605;48.700;8.760;2022-11-15T05:46:11;8.03;;;7.23;;
70946;SDS011;58605;48.700;8.760;2022-11-15T05:48:41;8.23;;;6.83;;
70946;SDS011;58605;48.700;8.760;2022-11-15T05:51:12;9.23;;;7.13;;
70946;SDS011;58605;48.700;8.760;2022-11-15T05:53:40;11.83;;;7.27;;
70946;SDS011;58605;48.700;8.760;2022-11-15T05:56:07;9.83;;;7.50;;
70946;SDS011;58605;48.700;8.760;2022-11-15T05:58:35;9.53;;;7.20;;
70946;SDS011;58605;48.700;8.760;2022-11-15T06:01:02;11.53;;;7.07;;
70946;SDS011;58605;48.700;8.760;2022-11-15T06:03:28;10.13;;;7.57;;
70946;SDS011;58605;48.700;8.760;2022-11-15T06:05:55;35.53;;;8.97;;
70946;SDS011;58605;48.700;8.760;2022-11-15T06:08:22;20.83;;;8.00;;
70946;SDS011;58605;48.700;8.760;2022-11-15T06:10:48;10.10;;;8.17;;
70946;SDS011;58605;48.700;8.760;2022-11-15T06:13:14;9.00;;;8.07;;
70946;SDS011;58605;48.700;8.760;2022-11-15T06:15:39;9.07;;;7.43;;
70946;SDS011;58605;48.700;8.760;2022-11-15T06:18:05;8.87;;;7.97;;
70946;SDS011;58605;48.700;8.760;2022-11-15T06:20:31;11.67;;;8.13;;
70946;SDS011;58605;48.700;8.760;2022-11-15T06:22:59;7.83;;;6.73;;
70946;SDS011;58605;48.700;8.760;2022-11-15T06:25:28;10.73;;;7.53;;
70946;SDS011;58605;48.700;8.760;2022-11-15T06:27:54;9.07;;;7.60;;
70946;SDS011;58605;48.700;8.760;2022-11-15T06:30:22;10.17;;;8.03;;
70946;SDS011;58605;48.700;8.760;2022-11-15T06:32:48;9.30;;;6.93;;
70946;SDS011;58605;48.700;8.760;2022-11-15T06:35:14;9.07;;;7.50;;
70946;SDS011;58605;48.700;8.760;2022-11-15T06:37:41;8.37;;;7.47;;
70946;SDS011;58605;48.700;8.760;2022-11-15T06:40:09;8.73;;;6.73;;
70946;SDS011;58605;48.700;8.760;2022-11-15T06:42:36;7.13;;;6.43;;
70946;SDS011;58605;48.700;8.760;2022-11-15T06:45:02;7.50;;;6.80;;
70946;SDS011;58605;48.700;8.760;2022-11-15T06:47:29;10.27;;;7.60;;
70946;SDS011;58605;48.700;8.760;2022-11-15T06:49:54;8.17;;;7.37;;
70946;SDS011;58605;48.700;8.760;2022-11-15T06:52:20;7.47;;;6.70;;
70946;SDS011;58605;48.700;8.760;2022-11-15T06:54:47;9.80;;;7.70;;
70946;SDS011;58605;48.700;8.760;2022-11-15T06:57:14;9.77;;;7.13;;
70946;SDS011;58605;48.700;8.760;2022-11-15T06:59:40;8.47;;;7.50;;
70946;SDS011;58605;48.700;8.760;2022-11-15T07:02:10;14.20;;;7.90;;
70946;SDS011;58605;48.700;8.760;2022-11-15T07:04:37;14.37;;;8.27;;
70946;SDS011;58605;48.700;8.760;2022-11-15T07:07:03;9.83;;;7.80;;
70946;SDS011;58605;48.700;8.760;2022-11-15T07:09:29;9.43;;;8.30;;
70946;SDS011;58605;48.700;8.760;2022-11-15T07:11:54;12.23;;;8.27;;
70946;SDS011;58605;48.700;8.760;2022-11-15T07:14:22;14.40;;;9.10;;
70946;SDS011;58605;48.700;8.760;2022-11-15T07:16:48;11.27;;;8.20;;
70946;SDS011;58605;48.700;8.760;2022-11-15T07:19:14;8.80;;;7.90;;
70946;SDS011;58605;48.700;8.760;2022-11-15T07:21:40;9.70;;;7.37;;
70946;SDS011;58605;48.700;8.760;2022-11-15T07:24:06;10.00;;;7.13;;
70946;SDS011;58605;48.700;8.760;2022-11-15T07:26:32;9.43;;;6.83;;
70946;SDS011;58605;48.700;8.760;2022-11-15T07:28:58;10.53;;;6.67;;
70946;SDS011;58605;48.700;8.760;2022-11-15T07:31:25;6.93;;;6.23;;
70946;SDS011;58605;48.700;8.760;2022-11-15T07:33:51;7.63;;;6.70;;
70946;SDS011;58605;48.700;8.760;2022-11-15T07:36:17;9.60;;;7.63;;
70946;SDS011;58605;48.700;8.760;2022-11-15T07:38:43;8.80;;;7.20;;
70946;SDS011;58605;48.700;8.760;2022-11-15T07:41:09;11.87;;;7.90;;
70946;SDS011;58605;48.700;8.760;2022-11-15T07:43:36;8.90;;;7.20;;
70946;SDS011;58605;48.700;8.760;2022-11-15T07:46:04;10.83;;;7.77;;
70946;SDS011;58605;48.700;8.760;2022-11-15T07:48:32;9.57;;;8.57;;
70946;SDS011;58605;48.700;8.760;2022-11-15T07:50:58;10.23;;;8.00;;
70946;SDS011;58605;48.700;8.760;2022-11-15T07:53:23;8.87;;;7.97;;
70946;SDS011;58605;48.700;8.760;2022-11-15T07:55:49;10.47;;;9.03;;
70946;SDS011;58605;48.700;8.760;2022-11-15T07:58:15;10.00;;;8.40;;
70946;SDS011;58605;48.700;8.760;2022-11-15T08:00:42;10.43;;;8.83;;
70946;SDS011;58605;48.700;8.760;2022-11-15T08:03:09;9.20;;;8.30;;
70946;SDS011;58605;48.700;8.760;2022-11-15T08:05:38;8.20;;;7.10;;
70946;SDS011;58605;48.700;8.760;2022-11-15T08:08:05;8.33;;;7.53;;
70946;SDS011;58605;48.700;8.760;2022-11-15T08:10:31;10.63;;;9.53;;
70946;SDS011;58605;48.700;8.760;2022-11-15T08:12:58;10.27;;;8.67;;
70946;SDS011;58605;48.700;8.760;2022-11-15T08:15:24;10.80;;;8.67;;
70946;SDS011;58605;48.700;8.760;2022-11-15T08:17:53;12.23;;;10.43;;
70946;SDS011;58605;48.700;8.760;2022-11-15T08:20:20;14.77;;;10.77;;
70946;SDS011;58605;48.700;8.760;2022-11-15T08:22:47;10.90;;;9.13;;
70946;SDS011;58605;48.700;8.760;2022-11-15T08:25:20;10.03;;;8.80;;
70946;SDS011;58605;48.700;8.760;2022-11-15T08:27:52;12.23;;;9.57;;
70946;SDS011;58605;48.700;8.760;2022-11-15T08:30:18;12.27;;;7.67;;
70946;SDS011;58605;48.700;8.760;2022-11-15T08:32:44;10.70;;;7.83;;
70946;SDS011;58605;48.700;8.760;2022-11-15T08:35:10;7.97;;;7.17;;
70946;SDS011;58605;48.700;8.760;2022-11-15T08:37:36;8.43;;;6.80;;
70946;SDS011;58605;48.700;8.760;2022-11-15T08:40:04;7.53;;;6.83;;
70946;SDS011;58605;48.700;8.760;2022-11-15T08:42:31;7.80;;;7.10;;
70946;SDS011;58605;48.700;8.760;2022-11-15T08:44:57;9.40;;;6.80;;
70946;SDS011;58605;48.700;8.760;2022-11-15T08:47:23;9.80;;;7.37;;
70946;SDS011;58605;48.700;8.760;2022-11-15T08:49:49;7.50;;;6.80;;
70946;SDS011;58605;48.700;8.760;2022-11-15T08:52:15;7.43;;;6.73;;
70946;SDS011;58605;48.700;8.760;2022-11-15T08:54:41;8.43;;;7.13;;
70946;SDS011;58605;48.700;8.760;2022-11-15T08:57:08;7.00;;;6.30;;
70946;SDS011;58605;48.700;8.760;2022-11-15T08:59:34;8.13;;;7.30;;
70946;SDS011;58605;48.700;8.760;2022-11-15T09:02:00;6.73;;;6.00;;
70946;SDS011;58605;48.700;8.760;2022-11-15T09:04:26;7.03;;;6.37;;
70946;SDS011;58605;48.700;8.760;2022-11-15T09:06:53;7.13;;;6.23;;
70946;SDS011;58605;48.700;8.760;2022-11-15T09:09:19;7.97;;;6.77;;
70946;SDS011;58605;48.700;8.760;2022-11-15T09:11:44;6.53;;;5.80;;
70946;SDS011;58605;48.700;8.760;2022-11-15T09:14:12;7.13;;;6.53;;
70946;SDS011;58605;48.700;8.760;2022-11-15T09:16:39;7.17;;;6.07;;
70946;SDS011;58605;48.700;8.760;2022-11-15T09:19:05;7.77;;;6.23;;
70946;SDS011;58605;48.700;8.760;2022-11-15T09:21:31;6.40;;;5.73;;
70946;SDS011;58605;48.700;8.760;2022-11-15T09:23:57;7.40;;;5.67;;
70946;SDS011;58605;48.700;8.760;2022-11-15T09:26:24;6.77;;;5.67;;
70946;SDS011;58605;48.700;8.760;2022-11-15T09:28:50;6.93;;;5.60;;
70946;SDS011;58605;48.700;8.760;2022-11-15T09:31:17;7.83;;;6.17;;
70946;SDS011;58605;48.700;8.760;2022-11-15T09:33:43;6.33;;;5.70;;
70946;SDS011;58605;48.700;8.760;2022-11-15T09:36:10;8.10;;;6.13;;
70946;SDS011;58605;48.700;8.760;2022-11-15T09:38:36;8.27;;;5.87;;
70946;SDS011;58605;48.700;8.760;2022-11-15T09:44:20;6.27;;;5.60;;
70946;SDS011;58605;48.700;8.760;2022-11-15T09:47:02;7.23;;;6.13;;
70946;SDS011;58605;48.700;8.760;2022-11-15T09:49:35;7.33;;;5.30;;
70946;SDS011;58605;48.700;8.760;2022-11-15T09:52:01;7.43;;;5.93;;
70946;SDS011;58605;48.700;8.760;2022-11-15T09:54:29;7.43;;;5.63;;
70946;SDS011;58605;48.700;8.760;2022-11-15T09:57:02;7.00;;;5.13;;
70946;SDS011;58605;48.700;8.760;2022-11-15T09:59:38;5.60;;;5.10;;
70946;SDS011;58605;48.700;8.760;2022-11-15T10:02:29;5.60;;;4.57;;
70946;SDS011;58605;48.700;8.760;2022-11-15T10:05:12;7.00;;;4.80;;
70946;SDS011;58605;48.700;8.760;2022-11-15T10:07:44;4.37;;;3.90;;
70946;SDS011;58605;48.700;8.760;2022-11-15T10:10:17;5.23;;;4.23;;
70946;SDS011;58605;48.700;8.760;2022-11-15T10:12:50;5.50;;;4.23;;
70946;SDS011;58605;48.700;8.760;2022-11-15T10:15:18;4.30;;;3.90;;
70946;SDS011;58605;48.700;8.760;2022-11-15T10:20:44;4.57;;;4.10;;
70946;SDS011;58605;48.700;8.760;2022-11-15T10:23:13;4.93;;;3.83;;
70946;SDS011;58605;48.700;8.760;2022-11-15T10:25:41;5.17;;;4.20;;
70946;SDS011;58605;48.700;8.760;2022-11-15T10:28:09;4.27;;;3.47;;
70946;SDS011;58605;48.700;8.760;2022-11-15T10:30:40;6.10;;;3.73;;
70946;SDS011;58605;48.700;8.760;2022-11-15T10:33:19;3.77;;;3.43;;
70946;SDS011;58605;48.700;8.760;2022-11-15T10:38:57;4.17;;;3.73;;
70946;SDS011;58605;48.700;8.760;2022-11-15T10:41:31;4.00;;;3.60;;
70946;SDS011;58605;48.700;8.760;2022-11-15T10:44:02;4.37;;;3.67;;
70946;SDS011;58605;48.700;8.760;2022-11-15T10:46:44;4.77;;;3.73;;
70946;SDS011;58605;48.700;8.760;2022-11-15T10:49:17;3.93;;;3.43;;
70946;SDS011;58605;48.700;8.760;2022-11-15T10:51:45;3.80;;;3.40;;
70946;SDS011;58605;48.700;8.760;2022-11-15T10:54:14;4.37;;;3.80;;
70946;SDS011;58605;48.700;8.760;2022-11-15T10:56:48;4.53;;;3.73;;
70946;SDS011;58605;48.700;8.760;2022-11-15T10:59:17;4.47;;;4.00;;
70946;SDS011;58605;48.700;8.760;2022-11-15T11:01:49;5.60;;;3.80;;
70946;SDS011;58605;48.700;8.760;2022-11-15T11:04:17;4.40;;;3.73;;
70946;SDS011;58605;48.700;8.760;2022-11-15T11:06:48;5.27;;;4.17;;
70946;SDS011;58605;48.700;8.760;2022-11-15T11:09:28;4.77;;;4.20;;
70946;SDS011;58605;48.700;8.760;2022-11-15T11:11:57;5.60;;;4.37;;
70946;SDS011;58605;48.700;8.760;2022-11-15T11:14:24;5.40;;;4.23;;
70946;SDS011;58605;48.700;8.760;2022-11-15T11:16:58;6.13;;;4.60;;
70946;SDS011;58605;48.700;8.760;2022-11-15T11:19:38;4.77;;;4.27;;
70946;SDS011;58605;48.700;8.760;2022-11-15T11:22:17;5.03;;;4.53;;
70946;SDS011;58605;48.700;8.760;2022-11-15T11:24:51;7.63;;;4.30;;
70946;SDS011;58605;48.700;8.760;2022-11-15T11:27:36;4.60;;;3.97;;
70946;SDS011;58605;48.700;8.760;2022-11-15T11:30:09;5.47;;;4.43;;
70946;SDS011;58605;48.700;8.760;2022-11-15T11:32:42;5.17;;;4.40;;
70946;SDS011;58605;48.700;8.760;2022-11-15T11:35:38;5.40;;;4.17;;
70946;SDS011;58605;48.700;8.760;2022-11-15T11:38:23;5.17;;;4.40;;
70946;SDS011;58605;48.700;8.760;2022-11-15T11:41:01;4.60;;;4.13;;
70946;SDS011;58605;48.700;8.760;2022-11-15T11:43:36;4.27;;;3.80;;
70946;SDS011;58605;48.700;8.760;2022-11-15T11:46:21;5.63;;;4.83;;
70946;SDS011;58605;48.700;8.760;2022-11-15T11:48:57;4.97;;;3.77;;
70946;SDS011;58605;48.700;8.760;2022-11-15T11:51:32;5.00;;;4.50;;
70946;SDS011;58605;48.700;8.760;2022-11-15T11:54:03;4.77;;;4.20;;
70946;SDS011;58605;48.700;8.760;2022-11-15T11:56:37;5.93;;;4.03;;
70946;SDS011;58605;48.700;8.760;2022-11-15T11:59:07;5.43;;;4.03;;
70946;SDS011;58605;48.700;8.760;2022-11-15T12:01:42;5.23;;;3.70;;
70946;SDS011;58605;48.700;8.760;2022-11-15T12:04:10;4.60;;;3.97;;
70946;SDS011;58605;48.700;8.760;2022-11-15T12:06:44;3.90;;;3.53;;
70946;SDS011;58605;48.700;8.760;2022-11-15T12:09:15;5.13;;;4.50;;
70946;SDS011;58605;48.700;8.760;2022-11-15T12:11:49;4.63;;;4.23;;
70946;SDS011;58605;48.700;8.760;2022-11-15T12:14:22;4.50;;;3.60;;
70946;SDS011;58605;48.700;8.760;2022-11-15T12:16:52;4.03;;;3.53;;
70946;SDS011;58605;48.700;8.760;2022-11-15T12:19:18;4.37;;;3.87;;
70946;SDS011;58605;48.700;8.760;2022-11-15T12:21:46;5.13;;;4.20;;
70946;SDS011;58605;48.700;8.760;2022-11-15T12:24:20;5.50;;;4.40;;
70946;SDS011;58605;48.700;8.760;2022-11-15T12:26:50;4.90;;;4.30;;
70946;SDS011;58605;48.700;8.760;2022-11-15T12:29:23;4.27;;;3.83;;
70946;SDS011;58605;48.700;8.760;2022-11-15T12:31:54;5.20;;;3.73;;
70946;SDS011;58605;48.700;8.760;2022-11-15T12:40:19;3.83;;;3.53;;
70946;SDS011;58605;48.700;8.760;2022-11-15T12:43:00;3.93;;;3.53;;
70946;SDS011;58605;48.700;8.760;2022-11-15T12:45:50;4.50;;;3.70;;
70946;SDS011;58605;48.700;8.760;2022-11-15T12:51:23;4.77;;;4.27;;
70946;SDS011;58605;48.700;8.760;2022-11-15T12:57:51;4.33;;;3.93;;
70946;SDS011;58605;48.700;8.760;2022-11-15T13:03:16;4.50;;;4.10;;
70946;SDS011;58605;48.700;8.760;2022-11-15T13:05:53;4.67;;;3.80;;
70946;SDS011;58605;48.700;8.760;2022-11-15T13:08:39;4.97;;;3.40;;
70946;SDS011;58605;48.700;8.760;2022-11-15T13:17:27;4.83;;;3.40;;
70946;SDS011;58605;48.700;8.760;2022-11-15T13:22:44;3.17;;;2.93;;
70946;SDS011;58605;48.700;8.760;2022-11-15T13:28:30;3.20;;;2.90;;
70946;SDS011;58605;48.700;8.760;2022-11-15T13:31:14;4.87;;;3.20;;
70946;SDS011;58605;48.700;8.760;2022-11-15T13:33:57;3.37;;;3.07;;
70946;SDS011;58605;48.700;8.760;2022-11-15T13:36:26;3.80;;;3.20;;
70946;SDS011;58605;48.700;8.760;2022-11-15T13:38:55;4.13;;;2.83;;
70946;SDS011;58605;48.700;8.760;2022-11-15T13:41:23;3.80;;;3.17;;
70946;SDS011;58605;48.700;8.760;2022-11-15T13:43:51;4.87;;;3.10;;
70946;SDS011;58605;48.700;8.760;2022-11-15T13:46:19;5.10;;;3.33;;
70946;SDS011;58605;48.700;8.760;2022-11-15T13:48:46;3.70;;;2.93;;
70946;SDS011;58605;48.700;8.760;2022-11-15T13:51:18;4.20;;;3.63;;
70946;SDS011;58605;48.700;8.760;2022-11-15T13:53:48;5.17;;;3.90;;
70946;SDS011;58605;48.700;8.760;2022-11-15T13:56:19;4.67;;;3.63;;
70946;SDS011;58605;48.700;8.760;2022-11-15T13:58:46;4.23;;;3.80;;
70946;SDS011;58605;48.700;8.760;2022-11-15T14:01:14;4.00;;;3.60;;
70946;SDS011;58605;48.700;8.760;2022-11-15T14:03:46;3.57;;;3.27;;
70946;SDS011;58605;48.700;8.760;2022-11-15T14:06:16;5.57;;;3.80;;
70946;SDS011;58605;48.700;8.760;2022-11-15T14:08:57;5.17;;;3.87;;
70946;SDS011;58605;48.700;8.760;2022-11-15T14:11:30;4.27;;;3.87;;
70946;SDS011;58605;48.700;8.760;2022-11-15T14:16:41;5.07;;;3.67;;
70946;SDS011;58605;48.700;8.760;2022-11-15T14:19:09;5.13;;;3.93;;
70946;SDS011;58605;48.700;8.760;2022-11-15T14:21:38;4.53;;;4.13;;
70946;SDS011;58605;48.700;8.760;2022-11-15T14:24:35;6.10;;;3.63;;
70946;SDS011;58605;48.700;8.760;2022-11-15T14:27:15;4.03;;;3.63;;
70946;SDS011;58605;48.700;8.760;2022-11-15T14:29:42;5.27;;;4.20;;
70946;SDS011;58605;48.700;8.760;2022-11-15T14:32:11;7.17;;;4.60;;
70946;SDS011;58605;48.700;8.760;2022-11-15T14:34:47;6.23;;;4.17;;
70946;SDS011;58605;48.700;8.760;2022-11-15T14:37:19;4.67;;;3.77;;
70946;SDS011;58605;48.700;8.760;2022-11-15T14:39:47;4.40;;;4.00;;
70946;SDS011;58605;48.700;8.760;2022-11-15T14:42:13;6.23;;;4.20;;
70946;SDS011;58605;48.700;8.760;2022-11-15T14:44:38;5.33;;;4.03;;
70946;SDS011;58605;48.700;8.760;2022-11-15T14:47:04;5.93;;;4.10;;
70946;SDS011;58605;48.700;8.760;2022-11-15T14:49:30;4.73;;;3.70;;
70946;SDS011;58605;48.700;8.760;2022-11-15T14:51:56;5.30;;;4.30;;
70946;SDS011;58605;48.700;8.760;2022-11-15T14:54:24;4.60;;;3.87;;
70946;SDS011;58605;48.700;8.760;2022-11-15T14:56:50;5.07;;;3.77;;
70946;SDS011;58605;48.700;8.760;2022-11-15T14:59:16;4.50;;;3.93;;
70946;SDS011;58605;48.700;8.760;2022-11-15T15:01:41;5.07;;;3.70;;
70946;SDS011;58605;48.700;8.760;2022-11-15T15:04:08;4.20;;;3.80;;
70946;SDS011;58605;48.700;8.760;2022-11-15T15:06:35;5.23;;;4.10;;
70946;SDS011;58605;48.700;8.760;2022-11-15T15:09:01;5.43;;;3.90;;
70946;SDS011;58605;48.700;8.760;2022-11-15T15:11:30;4.83;;;4.00;;
70946;SDS011;58605;48.700;8.760;2022-11-15T15:13:57;5.83;;;3.43;;
70946;SDS011;58605;48.700;8.760;2022-11-15T15:16:26;4.60;;;4.20;;
70946;SDS011;58605;48.700;8.760;2022-11-15T15:18:52;5.37;;;3.97;;
70946;SDS011;58605;48.700;8.760;2022-11-15T15:21:19;5.03;;;4.07;;
70946;SDS011;58605;48.700;8.760;2022-11-15T15:23:47;6.83;;;4.33;;
70946;SDS011;58605;48.700;8.760;2022-11-15T15:26:13;6.53;;;4.57;;
70946;SDS011;58605;48.700;8.760;2022-11-15T15:28:41;4.33;;;3.90;;
70946;SDS011;58605;48.700;8.760;2022-11-15T15:31:13;5.60;;;4.67;;
70946;SDS011;58605;48.700;8.760;2022-11-15T15:33:46;5.87;;;4.80;;
70946;SDS011;58605;48.700;8.760;2022-11-15T15:36:12;5.93;;;4.27;;
70946;SDS011;58605;48.700;8.760;2022-11-15T15:38:41;4.93;;;4.40;;